Terminal Aerodrome Forecast
Issued by NWS Wilmington, OH

Current Version | Previous Version | Text Only | Print | Product List | Glossary Off
Versions: 1 2 3 4 5 6 7 8 9 10 11 12 13 14 15 16 17 18 19 20 21 22 23 24 25 26

000
FTUS41 KILN 160500
TAFCVG
TAF
KCVG 160535Z 1606/1712 17008KT P6SM OVC016
      TEMPO 1607/1611 -SHRA
     FM161100 21009KT P6SM OVC015
      TEMPO 1611/1613 -SHRA
     FM161300 23011KT P6SM OVC012
     FM161500 25012G20KT P6SM OVC015
     FM170000 27010G17KT P6SM OVC015=

USA.gov is the U.S. government's official web portal to all federal, state and local government web resources and services.